sensor_id;sensor_type;location;lat;lon;timestamp;temperature;humidity
33105;DHT22;19476;51.448;6.674;2024-02-16T00:00:58;17.70;52.60
33105;DHT22;19476;51.448;6.674;2024-02-16T00:03:24;17.70;52.60
33105;DHT22;19476;51.448;6.674;2024-02-16T00:05:50;17.70;52.60
33105;DHT22;19476;51.448;6.674;2024-02-16T00:08:18;17.40;52.40
33105;DHT22;19476;51.448;6.674;2024-02-16T00:10:44;17.70;52.60
33105;DHT22;19476;51.448;6.674;2024-02-16T00:13:10;17.70;52.60
33105;DHT22;19476;51.448;6.674;2024-02-16T00:15:36;17.80;52.50
33105;DHT22;19476;51.448;6.674;2024-02-16T00:18:05;17.80;52.40
33105;DHT22;19476;51.448;6.674;2024-02-16T00:20:30;17.80;52.50
33105;DHT22;19476;51.448;6.674;2024-02-16T00:22:57;17.80;52.30
33105;DHT22;19476;51.448;6.674;2024-02-16T00:25:23;17.80;52.40
33105;DHT22;19476;51.448;6.674;2024-02-16T00:27:49;17.90;52.20
33105;DHT22;19476;51.448;6.674;2024-02-16T00:30:18;17.80;52.00
33105;DHT22;19476;51.448;6.674;2024-02-16T00:32:44;17.90;52.10
33105;DHT22;19476;51.448;6.674;2024-02-16T00:35:14;17.80;52.00
33105;DHT22;19476;51.448;6.674;2024-02-16T00:37:42;17.80;52.50
33105;DHT22;19476;51.448;6.674;2024-02-16T00:40:08;17.80;51.90
33105;DHT22;19476;51.448;6.674;2024-02-16T00:42:34;17.80;52.00
33105;DHT22;19476;51.448;6.674;2024-02-16T00:45:00;17.80;51.90
33105;DHT22;19476;51.448;6.674;2024-02-16T00:47:27;17.80;51.80
33105;DHT22;19476;51.448;6.674;2024-02-16T00:49:53;17.80;51.80
33105;DHT22;19476;51.448;6.674;2024-02-16T00:52:19;17.80;51.90
33105;DHT22;19476;51.448;6.674;2024-02-16T00:54:44;17.80;51.80
33105;DHT22;19476;51.448;6.674;2024-02-16T00:57:12;17.80;51.80
33105;DHT22;19476;51.448;6.674;2024-02-16T00:59:40;17.80;51.80
33105;DHT22;19476;51.448;6.674;2024-02-16T01:02:06;17.80;51.90
33105;DHT22;19476;51.448;6.674;2024-02-16T01:04:33;17.80;51.80
33105;DHT22;19476;51.448;6.674;2024-02-16T01:06:59;17.80;51.90
33105;DHT22;19476;51.448;6.674;2024-02-16T01:09:25;17.80;51.90
33105;DHT22;19476;51.448;6.674;2024-02-16T01:11:52;17.80;51.90
33105;DHT22;19476;51.448;6.674;2024-02-16T01:14:18;17.20;51.60
33105;DHT22;19476;51.448;6.674;2024-02-16T01:16:46;17.80;51.90
33105;DHT22;19476;51.448;6.674;2024-02-16T01:19:12;17.80;51.90
33105;DHT22;19476;51.448;6.674;2024-02-16T01:21:39;17.80;51.80
33105;DHT22;19476;51.448;6.674;2024-02-16T01:24:05;17.80;51.90
33105;DHT22;19476;51.448;6.674;2024-02-16T01:26:31;17.80;51.90
33105;DHT22;19476;51.448;6.674;2024-02-16T01:28:58;17.80;52.40
33105;DHT22;19476;51.448;6.674;2024-02-16T01:31:29;17.80;51.90
33105;DHT22;19476;51.448;6.674;2024-02-16T01:33:54;17.80;51.90
33105;DHT22;19476;51.448;6.674;2024-02-16T01:36:21;17.80;51.90
33105;DHT22;19476;51.448;6.674;2024-02-16T01:38:49;17.80;52.00
33105;DHT22;19476;51.448;6.674;2024-02-16T01:41:15;17.80;52.00
33105;DHT22;19476;51.448;6.674;2024-02-16T01:43:41;17.80;52.00
33105;DHT22;19476;51.448;6.674;2024-02-16T01:46:09;17.80;51.90
33105;DHT22;19476;51.448;6.674;2024-02-16T01:48:35;17.80;51.90
33105;DHT22;19476;51.448;6.674;2024-02-16T01:51:00;17.80;51.90
33105;DHT22;19476;51.448;6.674;2024-02-16T01:53:29;17.80;51.90
33105;DHT22;19476;51.448;6.674;2024-02-16T01:55:56;17.80;52.50
33105;DHT22;19476;51.448;6.674;2024-02-16T01:58:22;17.80;51.80
33105;DHT22;19476;51.448;6.674;2024-02-16T02:00:48;17.80;51.80
33105;DHT22;19476;51.448;6.674;2024-02-16T02:03:14;17.80;52.40
33105;DHT22;19476;51.448;6.674;2024-02-16T02:05:48;17.80;51.80
33105;DHT22;19476;51.448;6.674;2024-02-16T02:08:15;17.80;51.70
33105;DHT22;19476;51.448;6.674;2024-02-16T02:10:41;17.90;51.90
33105;DHT22;19476;51.448;6.674;2024-02-16T02:13:07;17.90;51.90
33105;DHT22;19476;51.448;6.674;2024-02-16T02:15:35;17.90;51.80
33105;DHT22;19476;51.448;6.674;2024-02-16T02:18:00;17.90;51.80
33105;DHT22;19476;51.448;6.674;2024-02-16T02:20:26;17.90;51.70
33105;DHT22;19476;51.448;6.674;2024-02-16T02:22:52;17.90;51.70
33105;DHT22;19476;51.448;6.674;2024-02-16T02:25:18;17.90;51.70
33105;DHT22;19476;51.448;6.674;2024-02-16T02:27:44;17.90;51.60
33105;DHT22;19476;51.448;6.674;2024-02-16T02:30:11;17.90;51.50
33105;DHT22;19476;51.448;6.674;2024-02-16T02:32:38;17.90;51.50
33105;DHT22;19476;51.448;6.674;2024-02-16T02:35:05;17.90;51.40
33105;DHT22;19476;51.448;6.674;2024-02-16T02:37:31;17.90;51.40
33105;DHT22;19476;51.448;6.674;2024-02-16T02:39:57;17.90;51.40
33105;DHT22;19476;51.448;6.674;2024-02-16T02:42:23;17.90;51.30
33105;DHT22;19476;51.448;6.674;2024-02-16T02:44:49;17.80;51.30
33105;DHT22;19476;51.448;6.674;2024-02-16T02:47:17;17.80;51.40
33105;DHT22;19476;51.448;6.674;2024-02-16T02:49:43;17.80;51.40
33105;DHT22;19476;51.448;6.674;2024-02-16T02:52:10;17.80;51.40
33105;DHT22;19476;51.448;6.674;2024-02-16T02:54:35;17.80;51.50
33105;DHT22;19476;51.448;6.674;2024-02-16T02:57:02;17.80;51.60
33105;DHT22;19476;51.448;6.674;2024-02-16T02:59:31;17.80;51.70
33105;DHT22;19476;51.448;6.674;2024-02-16T03:01:57;17.80;51.80
33105;DHT22;19476;51.448;6.674;2024-02-16T03:04:23;17.80;51.80
33105;DHT22;19476;51.448;6.674;2024-02-16T03:06:52;17.80;51.70
33105;DHT22;19476;51.448;6.674;2024-02-16T03:09:19;17.70;51.70
33105;DHT22;19476;51.448;6.674;2024-02-16T03:11:45;17.90;51.80
33105;DHT22;19476;51.448;6.674;2024-02-16T03:14:11;17.90;51.80
33105;DHT22;19476;51.448;6.674;2024-02-16T03:16:37;17.80;51.80
33105;DHT22;19476;51.448;6.674;2024-02-16T03:19:06;17.90;51.90
33105;DHT22;19476;51.448;6.674;2024-02-16T03:21:43;17.90;51.80
33105;DHT22;19476;51.448;6.674;2024-02-16T03:24:09;17.80;51.70
33105;DHT22;19476;51.448;6.674;2024-02-16T03:26:35;17.90;51.90
33105;DHT22;19476;51.448;6.674;2024-02-16T03:29:01;17.90;51.90
33105;DHT22;19476;51.448;6.674;2024-02-16T03:31:27;17.90;51.90
33105;DHT22;19476;51.448;6.674;2024-02-16T03:33:55;17.90;51.90
33105;DHT22;19476;51.448;6.674;2024-02-16T03:36:21;17.90;51.90
33105;DHT22;19476;51.448;6.674;2024-02-16T03:38:48;17.90;51.90
33105;DHT22;19476;51.448;6.674;2024-02-16T03:41:21;17.80;52.00
33105;DHT22;19476;51.448;6.674;2024-02-16T03:43:47;17.80;52.00
33105;DHT22;19476;51.448;6.674;2024-02-16T03:46:17;17.80;52.10
33105;DHT22;19476;51.448;6.674;2024-02-16T03:48:43;17.80;52.00
33105;DHT22;19476;51.448;6.674;2024-02-16T03:51:10;17.80;52.10
33105;DHT22;19476;51.448;6.674;2024-02-16T03:53:36;17.80;52.20
33105;DHT22;19476;51.448;6.674;2024-02-16T03:56:04;17.80;52.20
33105;DHT22;19476;51.448;6.674;2024-02-16T03:58:31;17.80;52.30
33105;DHT22;19476;51.448;6.674;2024-02-16T04:00:57;17.80;52.30
33105;DHT22;19476;51.448;6.674;2024-02-16T04:03:24;17.80;52.40
33105;DHT22;19476;51.448;6.674;2024-02-16T04:05:50;17.80;52.40
33105;DHT22;19476;51.448;6.674;2024-02-16T04:08:18;17.90;52.40
33105;DHT22;19476;51.448;6.674;2024-02-16T04:10:50;17.90;52.40
33105;DHT22;19476;51.448;6.674;2024-02-16T04:13:23;17.90;52.40
33105;DHT22;19476;51.448;6.674;2024-02-16T04:15:49;17.80;52.40
33105;DHT22;19476;51.448;6.674;2024-02-16T04:18:15;17.80;52.40
33105;DHT22;19476;51.448;6.674;2024-02-16T04:20:41;17.80;52.40
33105;DHT22;19476;51.448;6.674;2024-02-16T04:23:09;17.80;52.40
33105;DHT22;19476;51.448;6.674;2024-02-16T04:25:35;17.80;52.30
33105;DHT22;19476;51.448;6.674;2024-02-16T04:28:01;17.80;52.30
33105;DHT22;19476;51.448;6.674;2024-02-16T04:30:26;17.80;52.40
33105;DHT22;19476;51.448;6.674;2024-02-16T04:32:52;17.60;52.30
33105;DHT22;19476;51.448;6.674;2024-02-16T04:35:18;17.80;52.50
33105;DHT22;19476;51.448;6.674;2024-02-16T04:37:44;18.10;53.10
33105;DHT22;19476;51.448;6.674;2024-02-16T04:40:10;17.70;52.50
33105;DHT22;19476;51.448;6.674;2024-02-16T04:42:48;17.70;52.50
33105;DHT22;19476;51.448;6.674;2024-02-16T04:45:21;17.70;52.60
33105;DHT22;19476;51.448;6.674;2024-02-16T04:47:47;17.40;52.50
33105;DHT22;19476;51.448;6.674;2024-02-16T04:50:15;17.70;52.80
33105;DHT22;19476;51.448;6.674;2024-02-16T04:52:41;17.60;52.70
33105;DHT22;19476;51.448;6.674;2024-02-16T04:55:07;17.60;52.80
33105;DHT22;19476;51.448;6.674;2024-02-16T04:57:35;17.60;52.90
33105;DHT22;19476;51.448;6.674;2024-02-16T05:00:03;17.60;52.90
33105;DHT22;19476;51.448;6.674;2024-02-16T05:02:29;17.50;53.00
33105;DHT22;19476;51.448;6.674;2024-02-16T05:04:54;17.50;53.10
33105;DHT22;19476;51.448;6.674;2024-02-16T05:07:21;17.50;53.20
33105;DHT22;19476;51.448;6.674;2024-02-16T05:09:47;17.50;53.30
33105;DHT22;19476;51.448;6.674;2024-02-16T05:12:13;17.50;53.40
33105;DHT22;19476;51.448;6.674;2024-02-16T05:14:38;17.90;53.60
33105;DHT22;19476;51.448;6.674;2024-02-16T05:17:04;17.40;53.50
33105;DHT22;19476;51.448;6.674;2024-02-16T05:19:33;17.40;53.60
33105;DHT22;19476;51.448;6.674;2024-02-16T05:22:00;17.40;53.70
33105;DHT22;19476;51.448;6.674;2024-02-16T05:24:26;17.40;53.80
33105;DHT22;19476;51.448;6.674;2024-02-16T05:26:52;17.40;53.90
33105;DHT22;19476;51.448;6.674;2024-02-16T05:29:18;17.30;54.00
33105;DHT22;19476;51.448;6.674;2024-02-16T05:31:44;17.30;54.20
33105;DHT22;19476;51.448;6.674;2024-02-16T05:34:09;17.30;54.20
33105;DHT22;19476;51.448;6.674;2024-02-16T05:36:35;17.30;54.30
33105;DHT22;19476;51.448;6.674;2024-02-16T05:39:02;17.30;54.40
33105;DHT22;19476;51.448;6.674;2024-02-16T05:41:46;17.30;54.40
33105;DHT22;19476;51.448;6.674;2024-02-16T05:44:11;17.30;54.50
33105;DHT22;19476;51.448;6.674;2024-02-16T05:46:40;17.30;54.50
33105;DHT22;19476;51.448;6.674;2024-02-16T05:49:05;17.30;54.60
33105;DHT22;19476;51.448;6.674;2024-02-16T05:51:37;17.30;54.60
33105;DHT22;19476;51.448;6.674;2024-02-16T05:54:07;17.10;54.80
33105;DHT22;19476;51.448;6.674;2024-02-16T05:56:34;17.30;54.80
33105;DHT22;19476;51.448;6.674;2024-02-16T05:59:02;17.30;54.90
33105;DHT22;19476;51.448;6.674;2024-02-16T06:01:31;17.20;54.90
33105;DHT22;19476;51.448;6.674;2024-02-16T06:03:57;17.30;55.10
33105;DHT22;19476;51.448;6.674;2024-02-16T06:06:26;17.30;55.10
33105;DHT22;19476;51.448;6.674;2024-02-16T06:08:52;17.30;55.20
33105;DHT22;19476;51.448;6.674;2024-02-16T06:11:17;17.30;55.20
33105;DHT22;19476;51.448;6.674;2024-02-16T06:13:43;17.30;55.30
33105;DHT22;19476;51.448;6.674;2024-02-16T06:16:11;17.30;55.30
33105;DHT22;19476;51.448;6.674;2024-02-16T06:18:37;17.30;55.50
33105;DHT22;19476;51.448;6.674;2024-02-16T06:21:03;17.30;55.40
33105;DHT22;19476;51.448;6.674;2024-02-16T06:23:28;17.30;55.50
33105;DHT22;19476;51.448;6.674;2024-02-16T06:25:54;17.40;55.50
33105;DHT22;19476;51.448;6.674;2024-02-16T06:28:20;17.40;55.50
33105;DHT22;19476;51.448;6.674;2024-02-16T06:30:46;17.40;55.60
33105;DHT22;19476;51.448;6.674;2024-02-16T06:33:11;17.40;55.60
33105;DHT22;19476;51.448;6.674;2024-02-16T06:35:40;17.40;55.60
33105;DHT22;19476;51.448;6.674;2024-02-16T06:38:06;17.40;55.60
33105;DHT22;19476;51.448;6.674;2024-02-16T06:40:32;17.40;55.60
33105;DHT22;19476;51.448;6.674;2024-02-16T06:42:58;17.40;55.60
33105;DHT22;19476;51.448;6.674;2024-02-16T06:45:24;17.30;55.70
33105;DHT22;19476;51.448;6.674;2024-02-16T06:47:51;17.50;55.70
33105;DHT22;19476;51.448;6.674;2024-02-16T06:50:16;17.40;55.70
33105;DHT22;19476;51.448;6.674;2024-02-16T06:52:42;17.50;55.70
33105;DHT22;19476;51.448;6.674;2024-02-16T06:55:08;17.50;55.60
33105;DHT22;19476;51.448;6.674;2024-02-16T06:57:33;17.50;55.60
33105;DHT22;19476;51.448;6.674;2024-02-16T06:59:59;17.60;55.60
33105;DHT22;19476;51.448;6.674;2024-02-16T07:02:25;17.60;55.60
33105;DHT22;19476;51.448;6.674;2024-02-16T07:04:51;17.60;55.40
33105;DHT22;19476;51.448;6.674;2024-02-16T07:07:16;17.60;55.40
33105;DHT22;19476;51.448;6.674;2024-02-16T07:09:42;17.60;55.30
33105;DHT22;19476;51.448;6.674;2024-02-16T07:12:08;17.60;55.20
33105;DHT22;19476;51.448;6.674;2024-02-16T07:14:33;17.60;55.20
33105;DHT22;19476;51.448;6.674;2024-02-16T07:16:59;17.60;55.10
33105;DHT22;19476;51.448;6.674;2024-02-16T07:19:24;17.60;55.10
33105;DHT22;19476;51.448;6.674;2024-02-16T07:21:50;17.60;55.10
33105;DHT22;19476;51.448;6.674;2024-02-16T07:24:17;17.60;55.20
33105;DHT22;19476;51.448;6.674;2024-02-16T07:26:43;17.60;55.20
33105;DHT22;19476;51.448;6.674;2024-02-16T07:29:09;17.60;55.20
33105;DHT22;19476;51.448;6.674;2024-02-16T07:31:35;17.60;55.20
33105;DHT22;19476;51.448;6.674;2024-02-16T07:34:02;17.60;55.20
33105;DHT22;19476;51.448;6.674;2024-02-16T07:36:27;17.60;55.20
33105;DHT22;19476;51.448;6.674;2024-02-16T07:38:53;17.60;55.20
33105;DHT22;19476;51.448;6.674;2024-02-16T07:41:19;17.50;55.30
33105;DHT22;19476;51.448;6.674;2024-02-16T07:43:44;17.60;55.30
33105;DHT22;19476;51.448;6.674;2024-02-16T07:46:10;17.70;55.30
33105;DHT22;19476;51.448;6.674;2024-02-16T07:48:36;17.60;55.30
33105;DHT22;19476;51.448;6.674;2024-02-16T07:51:01;17.60;55.30
33105;DHT22;19476;51.448;6.674;2024-02-16T07:53:29;17.60;55.30
33105;DHT22;19476;51.448;6.674;2024-02-16T07:55:55;17.60;55.40
33105;DHT22;19476;51.448;6.674;2024-02-16T07:58:20;17.60;55.30
33105;DHT22;19476;51.448;6.674;2024-02-16T08:00:46;17.60;55.30
33105;DHT22;19476;51.448;6.674;2024-02-16T08:03:12;17.70;55.30
33105;DHT22;19476;51.448;6.674;2024-02-16T08:05:38;17.60;55.30
33105;DHT22;19476;51.448;6.674;2024-02-16T08:08:04;17.70;55.30
33105;DHT22;19476;51.448;6.674;2024-02-16T08:10:30;17.70;55.20
33105;DHT22;19476;51.448;6.674;2024-02-16T08:12:55;17.70;55.20
33105;DHT22;19476;51.448;6.674;2024-02-16T08:15:21;17.70;55.10
33105;DHT22;19476;51.448;6.674;2024-02-16T08:17:51;17.70;55.20
33105;DHT22;19476;51.448;6.674;2024-02-16T08:20:17;17.80;55.20
33105;DHT22;19476;51.448;6.674;2024-02-16T08:22:43;17.80;55.20
33105;DHT22;19476;51.448;6.674;2024-02-16T08:25:08;17.80;55.10
33105;DHT22;19476;51.448;6.674;2024-02-16T08:27:34;17.80;55.10
33105;DHT22;19476;51.448;6.674;2024-02-16T08:30:00;17.90;55.00
33105;DHT22;19476;51.448;6.674;2024-02-16T08:32:28;17.90;55.00
33105;DHT22;19476;51.448;6.674;2024-02-16T08:34:53;18.00;54.90
33105;DHT22;19476;51.448;6.674;2024-02-16T08:37:21;18.00;54.90
33105;DHT22;19476;51.448;6.674;2024-02-16T08:39:47;18.00;54.80
33105;DHT22;19476;51.448;6.674;2024-02-16T08:42:13;18.10;54.80
33105;DHT22;19476;51.448;6.674;2024-02-16T08:44:40;18.10;54.70
33105;DHT22;19476;51.448;6.674;2024-02-16T08:47:06;18.10;54.70
33105;DHT22;19476;51.448;6.674;2024-02-16T08:49:33;18.10;54.50
33105;DHT22;19476;51.448;6.674;2024-02-16T08:51:59;18.20;54.50
33105;DHT22;19476;51.448;6.674;2024-02-16T08:54:25;18.20;54.40
33105;DHT22;19476;51.448;6.674;2024-02-16T08:56:54;18.20;54.40
33105;DHT22;19476;51.448;6.674;2024-02-16T08:59:20;18.20;54.40
33105;DHT22;19476;51.448;6.674;2024-02-16T09:01:46;18.20;54.10
33105;DHT22;19476;51.448;6.674;2024-02-16T09:04:12;18.20;54.10
33105;DHT22;19476;51.448;6.674;2024-02-16T09:06:38;18.30;54.20
33105;DHT22;19476;51.448;6.674;2024-02-16T09:09:04;18.30;54.20
33105;DHT22;19476;51.448;6.674;2024-02-16T09:11:33;18.30;54.10
33105;DHT22;19476;51.448;6.674;2024-02-16T09:13:59;18.30;54.10
33105;DHT22;19476;51.448;6.674;2024-02-16T09:16:24;18.40;54.20
33105;DHT22;19476;51.448;6.674;2024-02-16T09:18:50;18.40;54.20
33105;DHT22;19476;51.448;6.674;2024-02-16T09:21:16;18.40;54.20
33105;DHT22;19476;51.448;6.674;2024-02-16T09:23:42;18.40;54.20
33105;DHT22;19476;51.448;6.674;2024-02-16T09:26:07;18.40;54.20
33105;DHT22;19476;51.448;6.674;2024-02-16T09:28:40;18.50;54.40
33105;DHT22;19476;51.448;6.674;2024-02-16T09:31:06;18.50;54.40
33105;DHT22;19476;51.448;6.674;2024-02-16T09:33:33;18.50;54.40
33105;DHT22;19476;51.448;6.674;2024-02-16T09:35:59;18.50;54.50
33105;DHT22;19476;51.448;6.674;2024-02-16T09:38:25;18.60;54.60
33105;DHT22;19476;51.448;6.674;2024-02-16T09:40:50;18.60;54.70
33105;DHT22;19476;51.448;6.674;2024-02-16T09:43:27;18.60;54.80
33105;DHT22;19476;51.448;6.674;2024-02-16T09:45:57;18.70;54.70
33105;DHT22;19476;51.448;6.674;2024-02-16T09:48:26;18.70;54.90
33105;DHT22;19476;51.448;6.674;2024-02-16T09:50:55;18.70;54.80
33105;DHT22;19476;51.448;6.674;2024-02-16T09:53:24;18.80;54.90
33105;DHT22;19476;51.448;6.674;2024-02-16T09:55:50;18.80;54.70
33105;DHT22;19476;51.448;6.674;2024-02-16T09:58:17;18.80;54.60
33105;DHT22;19476;51.448;6.674;2024-02-16T10:00:51;18.80;54.50
33105;DHT22;19476;51.448;6.674;2024-02-16T10:05:52;18.90;54.20
33105;DHT22;19476;51.448;6.674;2024-02-16T10:08:19;18.90;54.30
33105;DHT22;19476;51.448;6.674;2024-02-16T10:10:44;18.90;54.30
33105;DHT22;19476;51.448;6.674;2024-02-16T10:13:10;19.00;54.90
33105;DHT22;19476;51.448;6.674;2024-02-16T10:15:37;19.00;54.30
33105;DHT22;19476;51.448;6.674;2024-02-16T10:18:06;19.00;54.30
33105;DHT22;19476;51.448;6.674;2024-02-16T10:20:34;19.00;54.30
33105;DHT22;19476;51.448;6.674;2024-02-16T10:23:09;19.00;54.30
33105;DHT22;19476;51.448;6.674;2024-02-16T10:25:36;19.00;54.30
33105;DHT22;19476;51.448;6.674;2024-02-16T10:28:09;19.10;54.50
33105;DHT22;19476;51.448;6.674;2024-02-16T10:30:38;19.10;54.50
33105;DHT22;19476;51.448;6.674;2024-02-16T10:33:05;19.10;54.50
33105;DHT22;19476;51.448;6.674;2024-02-16T10:35:36;19.10;54.60
33105;DHT22;19476;51.448;6.674;2024-02-16T10:38:04;19.20;54.60
33105;DHT22;19476;51.448;6.674;2024-02-16T10:40:32;19.20;54.50
33105;DHT22;19476;51.448;6.674;2024-02-16T10:43:03;19.20;54.50
33105;DHT22;19476;51.448;6.674;2024-02-16T10:45:31;19.20;54.40
33105;DHT22;19476;51.448;6.674;2024-02-16T10:47:58;19.20;54.50
33105;DHT22;19476;51.448;6.674;2024-02-16T10:50:23;19.20;54.40
33105;DHT22;19476;51.448;6.674;2024-02-16T10:52:49;19.20;54.40
33105;DHT22;19476;51.448;6.674;2024-02-16T10:55:15;19.20;54.50
33105;DHT22;19476;51.448;6.674;2024-02-16T10:57:42;19.20;54.50
33105;DHT22;19476;51.448;6.674;2024-02-16T11:00:09;19.20;54.50
33105;DHT22;19476;51.448;6.674;2024-02-16T11:02:53;19.20;54.50
33105;DHT22;19476;51.448;6.674;2024-02-16T11:05:32;19.30;54.60
33105;DHT22;19476;51.448;6.674;2024-02-16T11:08:05;19.30;54.60
33105;DHT22;19476;51.448;6.674;2024-02-16T11:10:36;19.30;55.20
33105;DHT22;19476;51.448;6.674;2024-02-16T11:13:03;19.30;54.50
33105;DHT22;19476;51.448;6.674;2024-02-16T11:15:34;19.30;54.60
33105;DHT22;19476;51.448;6.674;2024-02-16T11:18:00;19.30;54.80
33105;DHT22;19476;51.448;6.674;2024-02-16T11:20:26;19.30;54.70
33105;DHT22;19476;51.448;6.674;2024-02-16T11:22:53;19.20;54.70
33105;DHT22;19476;51.448;6.674;2024-02-16T11:25:19;19.30;54.80
33105;DHT22;19476;51.448;6.674;2024-02-16T11:27:55;19.30;54.90
33105;DHT22;19476;51.448;6.674;2024-02-16T11:30:22;19.30;54.90
33105;DHT22;19476;51.448;6.674;2024-02-16T11:32:47;19.30;55.00
33105;DHT22;19476;51.448;6.674;2024-02-16T11:35:13;19.20;55.00
33105;DHT22;19476;51.448;6.674;2024-02-16T11:37:39;19.20;55.10
33105;DHT22;19476;51.448;6.674;2024-02-16T11:40:06;19.20;55.30
33105;DHT22;19476;51.448;6.674;2024-02-16T11:42:33;19.20;55.40
33105;DHT22;19476;51.448;6.674;2024-02-16T11:45:00;19.20;55.50
33105;DHT22;19476;51.448;6.674;2024-02-16T11:47:26;19.20;55.50
33105;DHT22;19476;51.448;6.674;2024-02-16T11:50:09;19.20;55.70
33105;DHT22;19476;51.448;6.674;2024-02-16T11:52:41;19.20;56.10
33105;DHT22;19476;51.448;6.674;2024-02-16T11:55:11;19.10;56.00
33105;DHT22;19476;51.448;6.674;2024-02-16T11:57:37;19.10;56.10
33105;DHT22;19476;51.448;6.674;2024-02-16T12:00:04;19.10;56.20
33105;DHT22;19476;51.448;6.674;2024-02-16T12:02:35;19.10;56.30
33105;DHT22;19476;51.448;6.674;2024-02-16T12:05:02;19.10;56.40
33105;DHT22;19476;51.448;6.674;2024-02-16T12:07:28;19.10;56.50
33105;DHT22;19476;51.448;6.674;2024-02-16T12:10:01;19.00;57.00
33105;DHT22;19476;51.448;6.674;2024-02-16T12:12:27;19.10;56.80
33105;DHT22;19476;51.448;6.674;2024-02-16T12:14:54;19.10;56.60
33105;DHT22;19476;51.448;6.674;2024-02-16T12:17:20;19.00;56.60
33105;DHT22;19476;51.448;6.674;2024-02-16T12:19:47;19.00;56.60
33105;DHT22;19476;51.448;6.674;2024-02-16T12:22:22;19.00;56.80
33105;DHT22;19476;51.448;6.674;2024-02-16T12:24:49;19.00;57.00
33105;DHT22;19476;51.448;6.674;2024-02-16T12:27:16;19.00;56.80
33105;DHT22;19476;51.448;6.674;2024-02-16T12:29:42;19.00;56.80
33105;DHT22;19476;51.448;6.674;2024-02-16T12:32:08;19.00;57.00
33105;DHT22;19476;51.448;6.674;2024-02-16T12:34:36;19.00;57.00
33105;DHT22;19476;51.448;6.674;2024-02-16T12:37:07;19.00;57.20
33105;DHT22;19476;51.448;6.674;2024-02-16T12:39:36;19.00;57.30
33105;DHT22;19476;51.448;6.674;2024-02-16T12:42:03;19.00;57.50
33105;DHT22;19476;51.448;6.674;2024-02-16T12:44:28;19.00;57.70
33105;DHT22;19476;51.448;6.674;2024-02-16T12:46:55;19.00;57.40
33105;DHT22;19476;51.448;6.674;2024-02-16T12:49:21;18.90;57.50
33105;DHT22;19476;51.448;6.674;2024-02-16T12:51:51;18.90;57.60
33105;DHT22;19476;51.448;6.674;2024-02-16T12:54:17;18.90;57.80
33105;DHT22;19476;51.448;6.674;2024-02-16T12:56:48;18.90;57.80
33105;DHT22;19476;51.448;6.674;2024-02-16T12:59:14;18.90;57.80
33105;DHT22;19476;51.448;6.674;2024-02-16T13:01:40;18.90;58.00
33105;DHT22;19476;51.448;6.674;2024-02-16T13:04:07;18.90;58.00
33105;DHT22;19476;51.448;6.674;2024-02-16T13:06:33;18.80;58.00
33105;DHT22;19476;51.448;6.674;2024-02-16T13:08:59;18.80;58.10
33105;DHT22;19476;51.448;6.674;2024-02-16T13:11:25;18.80;58.10
33105;DHT22;19476;51.448;6.674;2024-02-16T13:13:50;18.90;58.20
33105;DHT22;19476;51.448;6.674;2024-02-16T13:16:18;18.80;58.20
33105;DHT22;19476;51.448;6.674;2024-02-16T13:18:43;18.80;58.30
33105;DHT22;19476;51.448;6.674;2024-02-16T13:21:09;18.80;58.80
33105;DHT22;19476;51.448;6.674;2024-02-16T13:23:35;18.80;58.40
33105;DHT22;19476;51.448;6.674;2024-02-16T13:26:01;18.80;58.50
33105;DHT22;19476;51.448;6.674;2024-02-16T13:28:26;18.80;58.70
33105;DHT22;19476;51.448;6.674;2024-02-16T13:30:52;18.80;59.10
33105;DHT22;19476;51.448;6.674;2024-02-16T13:33:18;18.70;59.40
33105;DHT22;19476;51.448;6.674;2024-02-16T13:35:44;18.70;59.70
33105;DHT22;19476;51.448;6.674;2024-02-16T13:38:09;18.60;59.70
33105;DHT22;19476;51.448;6.674;2024-02-16T13:40:35;18.60;60.10
33105;DHT22;19476;51.448;6.674;2024-02-16T13:43:01;18.60;60.20
33105;DHT22;19476;51.448;6.674;2024-02-16T13:45:54;18.50;60.50
33105;DHT22;19476;51.448;6.674;2024-02-16T13:48:20;18.50;61.60
33105;DHT22;19476;51.448;6.674;2024-02-16T13:50:47;18.20;60.80
33105;DHT22;19476;51.448;6.674;2024-02-16T13:53:13;18.40;61.40
33105;DHT22;19476;51.448;6.674;2024-02-16T13:55:40;18.30;61.40
33105;DHT22;19476;51.448;6.674;2024-02-16T13:58:06;18.30;61.80
33105;DHT22;19476;51.448;6.674;2024-02-16T14:00:32;18.30;62.00
33105;DHT22;19476;51.448;6.674;2024-02-16T14:02:58;18.30;62.30
33105;DHT22;19476;51.448;6.674;2024-02-16T14:05:23;18.20;62.40
33105;DHT22;19476;51.448;6.674;2024-02-16T14:07:51;18.20;62.60
33105;DHT22;19476;51.448;6.674;2024-02-16T14:10:17;18.20;62.80
33105;DHT22;19476;51.448;6.674;2024-02-16T14:12:45;18.20;62.80
33105;DHT22;19476;51.448;6.674;2024-02-16T14:15:12;18.10;63.20
33105;DHT22;19476;51.448;6.674;2024-02-16T14:17:41;18.20;63.00
33105;DHT22;19476;51.448;6.674;2024-02-16T14:20:08;18.20;63.20
33105;DHT22;19476;51.448;6.674;2024-02-16T14:22:34;18.20;63.20
33105;DHT22;19476;51.448;6.674;2024-02-16T14:24:59;18.20;63.20
33105;DHT22;19476;51.448;6.674;2024-02-16T14:27:25;18.20;63.20
33105;DHT22;19476;51.448;6.674;2024-02-16T14:29:50;18.20;63.20
33105;DHT22;19476;51.448;6.674;2024-02-16T14:32:17;18.20;63.20
33105;DHT22;19476;51.448;6.674;2024-02-16T14:34:42;18.20;63.80
33105;DHT22;19476;51.448;6.674;2024-02-16T14:37:10;18.30;63.30
33105;DHT22;19476;51.448;6.674;2024-02-16T14:39:35;18.30;63.30
33105;DHT22;19476;51.448;6.674;2024-02-16T14:42:01;18.30;63.10
33105;DHT22;19476;51.448;6.674;2024-02-16T14:44:27;18.30;63.10
33105;DHT22;19476;51.448;6.674;2024-02-16T14:46:52;18.30;63.00
33105;DHT22;19476;51.448;6.674;2024-02-16T14:49:18;18.30;62.90
33105;DHT22;19476;51.448;6.674;2024-02-16T14:51:47;18.30;63.00
33105;DHT22;19476;51.448;6.674;2024-02-16T14:54:13;18.30;62.90
33105;DHT22;19476;51.448;6.674;2024-02-16T14:56:39;18.20;62.80
33105;DHT22;19476;51.448;6.674;2024-02-16T14:59:04;18.20;62.80
33105;DHT22;19476;51.448;6.674;2024-02-16T15:01:31;18.20;62.80
33105;DHT22;19476;51.448;6.674;2024-02-16T15:03:57;18.20;63.00
33105;DHT22;19476;51.448;6.674;2024-02-16T15:06:23;18.20;62.90
33105;DHT22;19476;51.448;6.674;2024-02-16T15:08:51;18.20;62.90
33105;DHT22;19476;51.448;6.674;2024-02-16T15:11:16;18.20;63.00
33105;DHT22;19476;51.448;6.674;2024-02-16T15:13:42;18.20;62.90
33105;DHT22;19476;51.448;6.674;2024-02-16T15:16:08;18.20;63.00
33105;DHT22;19476;51.448;6.674;2024-02-16T15:18:37;18.20;63.00
33105;DHT22;19476;51.448;6.674;2024-02-16T15:21:02;18.20;63.20
33105;DHT22;19476;51.448;6.674;2024-02-16T15:23:28;18.20;62.80
33105;DHT22;19476;51.448;6.674;2024-02-16T15:25:54;18.20;62.80
33105;DHT22;19476;51.448;6.674;2024-02-16T15:28:20;18.20;62.70
33105;DHT22;19476;51.448;6.674;2024-02-16T15:30:45;18.20;62.70